Gregory David — WDB9815 — position and weather

sailwx.info

Track history (hours):
 
Tides and Currents Weather Stations Pressure Air Temp Water Temp Dewpoint Dewpoint Depression Visibility Wind Speed Wind Dir Waves Ship Positions

Gregory David

Owner: Steel City Marine Transport, Inc, Freedom, PA. More information available from US FCC via Universal Licensing System and Coast Guard Vessel Documentation Center.

Last reported at 2018-Feb-16 11:04 UTC. Time now 2018-Feb-19 06:11 UTC.
Position N 31°28' W 091°31'.

Length 50 m.

Type: Towing. MMSI: 366983290.

Date/timePositionNaut miles runAvg speedWind from/ knotsBaromVisibWave heightAir tempDewpointWater temp
2018-Feb-16 11:04N 31°28' W 091°31'0 0.0
2018-Feb-16 10:59N 31°28' W 091°31'0 0.0
2018-Feb-16 10:30N 31°28' W 091°31'15 4.0
2018-Feb-16 06:49N 31°41' W 091°24'3 8.2
2018-Feb-16 06:29N 31°44' W 091°23'26 7.6
2018-Feb-16 03:02N 32°05' W 091°05'110.1
2018-Feb-16 02:54N 32°06' W 091°06'2 3.9
2018-Feb-16 02:31N 32°08' W 091°06'4 7.9
2018-Feb-16 02:01N 32°07' W 091°01'4 8.9
2018-Feb-16 01:30N 32°12' W 090°60'4 8.9
2018-Feb-16 01:00N 32°16' W 090°58'5 9.1
2018-Feb-16 00:31N 32°19' W 090°54'3 6.8
2018-Feb-16 00:00N 32°21' W 090°58'3 6.4
2018-Feb-15 23:31N 32°24' W 090°60'4 8.3
2018-Feb-15 23:00N 32°26' W 091°03'4 8.5
2018-Feb-15 22:30N 32°29' W 091°07'4 7.7
2018-Feb-15 21:59N 32°33' W 091°06'4 8.5
2018-Feb-15 21:31N 32°36' W 091°09'4 6.8
2018-Feb-15 20:58N 32°40' W 091°08'  
2018-Feb-09 23:53N 38°36' W 090°12'1 1.6
2018-Feb-09 23:29N 38°36' W 090°11'  
Track history (hours):
 
Tides and Currents Weather Stations Pressure Air Temp Water Temp Dewpoint Dewpoint Depression Visibility Wind Speed Wind Dir Waves Ship Positions

Gregory David

Owner: Steel City Marine Transport, Inc, Freedom, PA. More information available from US FCC via Universal Licensing System and Coast Guard Vessel Documentation Center.

Last reported at 2018-Feb-16 11:04 UTC. Time now 2018-Feb-19 06:11 UTC.
Position N 31°28' W 091°31'.

Length 50 m.

Type: Towing. MMSI: 366983290.

Date/timePositionNaut miles runAvg speedWind from/ knotsBaromVisibWave heightAir tempDewpointWater temp
2018-Feb-16 11:04N 31°28' W 091°31'0 0.0
2018-Feb-16 10:59N 31°28' W 091°31'0 0.0
2018-Feb-16 10:30N 31°28' W 091°31'15 4.0
2018-Feb-16 06:49N 31°41' W 091°24'3 8.2
2018-Feb-16 06:29N 31°44' W 091°23'26 7.6
2018-Feb-16 03:02N 32°05' W 091°05'110.1
2018-Feb-16 02:54N 32°06' W 091°06'2 3.9
2018-Feb-16 02:31N 32°08' W 091°06'4 7.9
2018-Feb-16 02:01N 32°07' W 091°01'4 8.9
2018-Feb-16 01:30N 32°12' W 090°60'4 8.9
2018-Feb-16 01:00N 32°16' W 090°58'5 9.1
2018-Feb-16 00:31N 32°19' W 090°54'3 6.8
2018-Feb-16 00:00N 32°21' W 090°58'3 6.4
2018-Feb-15 23:31N 32°24' W 090°60'4 8.3
2018-Feb-15 23:00N 32°26' W 091°03'4 8.5
2018-Feb-15 22:30N 32°29' W 091°07'4 7.7
2018-Feb-15 21:59N 32°33' W 091°06'4 8.5
2018-Feb-15 21:31N 32°36' W 091°09'4 6.8
2018-Feb-15 20:58N 32°40' W 091°08'  
2018-Feb-09 23:53N 38°36' W 090°12'1 1.6
2018-Feb-09 23:29N 38°36' W 090°11'  

Dump ship's entire track history